Time;durP1;ratioP1;P1;durP2;ratioP2;P2;SDS_P1;SDS_P2;PMS_P1;PMS_P2;Temp;Humidity;BMP_temperature;BMP_pressure;BME280_temperature;BME280_humidity;BME280_pressure;Samples;Min_cycle;Max_cycle;Signal;HPM_P1;HPM_P2
2022/05/25 00:01:34;;;;;;;5.40;1.47;;;15.70;87.70;;;;;;5115826;27;20541;-69
2022/05/25 00:04:02;;;;;;;3.23;1.40;;;15.70;87.80;;;;;;5115564;28;20447;-69
2022/05/25 00:06:29;;;;;;;1.87;1.17;;;15.70;87.90;;;;;;5115729;28;20449;-69
2022/05/25 00:08:56;;;;;;;1.73;1.43;;;15.70;87.70;;;;;;5115313;28;20964;-69
2022/05/25 00:11:23;;;;;;;4.33;1.10;;;15.70;87.50;;;;;;5115785;28;20467;-69
2022/05/25 00:13:51;;;;;;;5.17;1.80;;;15.70;87.20;;;;;;5115473;28;20454;-69
2022/05/25 00:16:18;;;;;;;3.43;1.60;;;15.70;87.40;;;;;;5115477;28;20535;-69
2022/05/25 00:21:25;;;;;;;4.60;1.57;;;15.70;87.30;;;;;;5114185;28;20454;-69
2022/05/25 00:23:53;;;;;;;4.00;1.50;;;15.70;87.10;;;;;;5115160;28;20953;-69
2022/05/25 00:26:20;;;;;;;5.30;1.67;;;15.70;87.30;;;;;;5130792;28;20439;-70
2022/05/25 00:28:47;;;;;;;6.40;1.80;;;15.70;87.30;;;;;;5131366;28;20443;-70
2022/05/25 00:31:15;;;;;;;3.20;1.63;;;15.70;87.30;;;;;;5131601;28;20470;-70
2022/05/25 00:33:42;;;;;;;4.60;1.60;;;15.70;87.10;;;;;;5131314;28;20465;-70
2022/05/25 00:36:09;;;;;;;5.00;1.60;;;15.60;87.00;;;;;;5130949;28;20992;-70
2022/05/25 00:38:36;;;;;;;5.27;2.30;;;15.60;87.00;;;;;;5131276;28;20450;-70
2022/05/25 00:41:03;;;;;;;2.93;1.60;;;15.60;86.90;;;;;;5130026;28;20467;-70
2022/05/25 00:43:29;;;;;;;6.50;1.70;;;15.50;87.00;;;;;;5131397;28;20451;-70
2022/05/25 00:46:00;;;;;;;3.00;1.60;;;15.50;87.10;;;;;;5114973;28;20450;-69
2022/05/25 00:48:34;;;;;;;3.90;1.73;;;15.50;87.00;;;;;;5114078;28;20787;-69
2022/05/25 00:51:15;;;;;;;4.10;1.53;;;15.50;87.10;;;;;;5116498;28;20462;-68
2022/05/25 00:53:44;;;;;;;6.77;1.70;;;15.40;87.00;;;;;;5115412;28;20427;-68
2022/05/25 00:56:15;;;;;;;3.20;1.60;;;15.40;86.90;;;;;;5114963;28;20482;-69
2022/05/25 00:58:46;;;;;;;4.27;2.00;;;15.30;86.50;;;;;;5114831;28;20442;-69
2022/05/25 01:01:12;;;;;;;5.43;1.70;;;15.30;86.40;;;;;;5114708;28;20470;-69
2022/05/25 01:03:41;;;;;;;5.13;2.17;;;15.30;86.30;;;;;;5114666;28;20922;-69
2022/05/25 01:06:15;;;;;;;9.13;2.20;;;15.30;86.90;;;;;;5114880;28;20477;-69
2022/05/25 01:08:53;;;;;;;7.20;1.73;;;15.20;87.30;;;;;;5114695;28;20427;-69
2022/05/25 01:11:37;;;;;;;10.23;1.80;;;15.20;87.60;;;;;;5114629;28;20467;-69
2022/05/25 01:14:19;;;;;;;7.33;2.43;;;15.20;87.90;;;;;;5114937;28;20435;-69
2022/05/25 01:16:50;;;;;;;7.93;1.97;;;15.20;88.10;;;;;;5114575;28;20490;-69
2022/05/25 01:19:36;;;;;;;7.20;1.80;;;15.10;88.00;;;;;;5114517;28;20439;-69
2022/05/25 01:22:20;;;;;;;5.37;1.50;;;15.10;88.40;;;;;;5114721;28;20427;-69
2022/05/25 01:24:56;;;;;;;8.10;2.37;;;15.10;88.50;;;;;;5114101;28;20930;-69
2022/05/25 01:27:33;;;;;;;4.53;1.90;;;15.00;88.40;;;;;;5113991;28;20917;-69
2022/05/25 01:30:09;;;;;;;8.47;2.77;;;15.00;88.60;;;;;;5114148;28;20470;-69
2022/05/25 01:32:48;;;;;;;8.13;2.33;;;15.00;89.00;;;;;;5114456;28;20443;-69
2022/05/25 01:35:23;;;;;;;5.77;2.57;;;15.00;88.90;;;;;;5114099;28;20826;-69
2022/05/25 01:37:58;;;;;;;5.33;2.37;;;15.00;88.90;;;;;;5114337;28;20776;-69
2022/05/25 01:40:32;;;;;;;6.90;2.40;;;15.00;89.60;;;;;;5114271;28;20471;-69
2022/05/25 01:43:03;;;;;;;5.30;1.90;;;15.00;88.90;;;;;;5114114;28;20439;-69
2022/05/25 01:45:35;;;;;;;5.87;2.13;;;15.00;89.00;;;;;;5113901;28;20442;-70
2022/05/25 01:48:07;;;;;;;5.87;1.90;;;15.00;89.00;;;;;;5113953;28;20447;-70
2022/05/25 01:50:39;;;;;;;4.63;2.50;;;15.00;88.90;;;;;;5113957;28;20523;-70
2022/05/25 01:53:08;;;;;;;5.17;2.50;;;15.00;88.90;;;;;;5113771;28;20445;-70
2022/05/25 01:55:39;;;;;;;4.40;2.77;;;14.90;88.80;;;;;;5113838;28;20493;-70
2022/05/25 01:58:10;;;;;;;5.23;1.90;;;14.90;89.00;;;;;;5113570;28;20434;-70
2022/05/25 02:00:40;;;;;;;4.80;2.60;;;14.90;89.00;;;;;;5114128;28;20458;-70
2022/05/25 02:06:13;;;;;;;4.20;2.13;;;14.80;88.40;;;;;;5114092;28;20403;-69
2022/05/25 02:08:49;;;;;;;8.07;2.37;;;14.80;88.60;;;;;;5113384;28;20446;-70
2022/05/25 02:11:20;;;;;;;6.10;2.90;;;14.80;88.80;;;;;;5113717;28;20474;-70
2022/05/25 02:14:01;;;;;;;3.70;2.47;;;14.80;89.10;;;;;;5113766;28;20427;-70
2022/05/25 02:16:41;;;;;;;5.77;2.77;;;14.70;89.20;;;;;;5113729;28;20587;-70
2022/05/25 02:19:17;;;;;;;4.93;2.60;;;14.70;89.50;;;;;;5113738;28;20427;-70
2022/05/25 02:21:53;;;;;;;7.37;2.67;;;14.70;90.00;;;;;;5114273;28;20774;-70
2022/05/25 02:24:31;;;;;;;8.50;3.00;;;14.60;90.10;;;;;;5113383;28;20780;-70
2022/05/25 02:27:06;;;;;;;5.30;3.80;;;14.60;90.10;;;;;;5113642;28;20435;-70
2022/05/25 02:29:38;;;;;;;9.03;2.83;;;14.50;90.20;;;;;;5113511;28;20470;-70
2022/05/25 02:32:10;;;;;;;4.60;2.90;;;14.50;90.40;;;;;;5113756;28;20438;-70
2022/05/25 02:34:39;;;;;;;6.57;3.10;;;14.50;90.50;;;;;;5114458;28;20427;-70
2022/05/25 02:37:07;;;;;;;4.30;2.70;;;14.40;90.70;;;;;;5113459;28;20478;-70
2022/05/25 02:39:33;;;;;;;4.83;3.60;;;14.40;90.80;;;;;;5113537;28;20470;-70
2022/05/25 02:42:00;;;;;;;4.97;3.13;;;14.30;90.90;;;;;;5113423;28;20560;-70
2022/05/25 02:44:27;;;;;;;5.00;3.57;;;14.30;91.10;;;;;;5113422;28;20443;-70
2022/05/25 02:46:55;;;;;;;4.50;3.23;;;14.30;91.30;;;;;;5113180;28;20469;-70
2022/05/25 02:49:23;;;;;;;5.63;3.00;;;14.30;91.50;;;;;;5112967;28;21004;-70
2022/05/25 02:51:49;;;;;;;7.43;3.20;;;14.30;91.60;;;;;;5113212;28;20937;-70
2022/05/25 02:54:17;;;;;;;4.60;2.90;;;14.20;91.60;;;;;;5113426;28;20443;-70
2022/05/25 02:56:44;;;;;;;3.93;2.97;;;14.20;91.60;;;;;;5113188;28;20819;-70
2022/05/25 02:59:11;;;;;;;5.13;3.27;;;14.10;91.60;;;;;;5113334;28;20447;-70
2022/05/25 03:01:39;;;;;;;4.03;3.03;;;14.10;91.70;;;;;;5113132;28;20969;-70
2022/05/25 03:04:06;;;;;;;4.47;2.93;;;14.10;91.80;;;;;;5113308;28;20447;-70
2022/05/25 03:06:34;;;;;;;3.60;3.13;;;14.10;91.90;;;;;;5113253;28;20446;-70
2022/05/25 03:09:02;;;;;;;4.53;2.90;;;14.10;92.00;;;;;;5112855;28;20866;-70
2022/05/25 03:11:29;;;;;;;5.13;3.27;;;14.10;92.10;;;;;;5115309;28;20450;-70
2022/05/25 03:13:55;;;;;;;8.70;3.60;;;14.10;92.10;;;;;;5116813;28;20442;-70
2022/05/25 03:16:23;;;;;;;3.27;2.97;;;14.10;92.10;;;;;;5116879;28;20478;-70
2022/05/25 03:18:51;;;;;;;4.07;2.90;;;14.10;92.00;;;;;;5117112;28;20474;-70
2022/05/25 03:21:18;;;;;;;4.57;3.50;;;14.10;92.00;;;;;;5116644;28;20467;-70
2022/05/25 03:23:46;;;;;;;4.80;3.00;;;14.10;92.10;;;;;;5116712;28;20439;-70
2022/05/25 03:26:13;;;;;;;4.13;3.17;;;14.10;91.90;;;;;;5116356;28;20439;-70
2022/05/25 03:28:40;;;;;;;3.40;2.93;;;14.20;91.90;;;;;;5116816;28;20443;-70
2022/05/25 03:31:06;;;;;;;4.30;3.13;;;14.10;91.90;;;;;;5116498;28;20811;-70
2022/05/25 03:33:34;;;;;;;5.00;2.67;;;14.20;91.90;;;;;;5116454;28;20438;-70
2022/05/25 03:36:00;;;;;;;5.60;3.73;;;14.20;91.70;;;;;;5116261;28;20482;-70
2022/05/25 03:38:28;;;;;;;5.53;3.00;;;14.10;91.50;;;;;;5116368;28;20450;-70
2022/05/25 03:40:57;;;;;;;4.77;2.90;;;14.10;91.70;;;;;;5116360;28;20477;-70
2022/05/25 03:43:29;;;;;;;6.90;3.10;;;14.10;91.70;;;;;;5116242;28;20512;-70
2022/05/25 03:45:55;;;;;;;8.33;4.00;;;14.10;91.80;;;;;;5116130;28;20443;-70
2022/05/25 03:48:22;;;;;;;10.13;3.70;;;14.10;91.70;;;;;;5116034;28;20446;-70
2022/05/25 03:50:49;;;;;;;8.07;3.77;;;14.10;91.70;;;;;;5116170;28;20467;-70
2022/05/25 03:53:17;;;;;;;5.63;3.67;;;14.10;91.70;;;;;;5116062;28;20527;-70
2022/05/25 03:55:44;;;;;;;5.40;3.20;;;14.10;91.70;;;;;;5115867;28;20500;-69
2022/05/25 03:58:13;;;;;;;5.37;3.80;;;14.10;91.70;;;;;;5115948;28;20450;-70
2022/05/25 04:00:40;;;;;;;6.20;4.30;;;14.10;91.70;;;;;;5115788;28;20917;-70
2022/05/25 04:03:07;;;;;;;3.80;3.27;;;14.10;91.70;;;;;;5115878;28;20447;-70
2022/05/25 04:05:34;;;;;;;4.37;3.00;;;14.00;91.70;;;;;;5115995;28;20950;-70
2022/05/25 04:08:01;;;;;;;3.50;3.20;;;14.10;91.80;;;;;;5116048;28;20809;-70
2022/05/25 04:10:29;;;;;;;4.00;3.37;;;14.10;91.70;;;;;;5115772;28;20483;-70
2022/05/25 04:12:56;;;;;;;5.40;3.17;;;14.10;91.60;;;;;;5115887;28;20427;-70
2022/05/25 04:15:26;;;;;;;5.50;3.00;;;14.10;91.60;;;;;;5115710;28;20530;-70
2022/05/25 04:17:53;;;;;;;4.27;3.80;;;14.10;91.60;;;;;;5116250;28;20435;-70
2022/05/25 04:20:20;;;;;;;4.50;3.93;;;14.00;91.70;;;;;;5115254;28;20447;-70
2022/05/25 04:22:48;;;;;;;4.30;3.90;;;14.00;91.80;;;;;;5115806;28;20443;-70
2022/05/25 04:25:17;;;;;;;6.90;3.70;;;14.00;92.00;;;;;;5115394;28;20466;-70
2022/05/25 04:27:46;;;;;;;3.93;3.10;;;14.00;91.90;;;;;;5115390;28;20780;-70
2022/05/25 04:30:15;;;;;;;4.93;4.43;;;14.10;92.20;;;;;;5115693;28;20467;-70
2022/05/25 04:32:44;;;;;;;7.93;3.63;;;14.10;92.20;;;;;;5115620;28;20929;-70
2022/05/25 04:35:12;;;;;;;4.53;3.50;;;14.10;92.20;;;;;;5115426;28;20811;-70
2022/05/25 04:37:52;;;;;;;5.40;3.87;;;14.10;92.10;;;;;;5115622;28;20466;-69
2022/05/25 04:40:23;;;;;;;4.20;3.50;;;14.00;92.20;;;;;;5115525;28;20557;-69
2022/05/25 04:42:50;;;;;;;4.83;3.93;;;14.00;92.40;;;;;;5115600;28;20451;-69
2022/05/25 04:45:18;;;;;;;5.53;3.67;;;14.00;92.40;;;;;;5115110;28;20450;-69
2022/05/25 04:47:46;;;;;;;3.53;3.00;;;14.00;92.50;;;;;;5115091;28;20434;-69
2022/05/25 04:50:14;;;;;;;4.80;3.30;;;14.00;92.60;;;;;;5114939;28;20463;-69
2022/05/25 04:52:41;;;;;;;5.80;3.97;;;14.00;92.60;;;;;;5115076;28;20443;-69
2022/05/25 04:57:19;;;;;;;4.87;3.67;;;14.10;92.70;;;;;;5114818;28;20462;-70
2022/05/25 04:57:56;;;;;;;4.20;3.47;;;14.10;92.60;;;;;;5115453;27;20482;-70
2022/05/25 05:00:23;;;;;;;10.73;4.10;;;14.00;92.80;;;;;;5123372;28;20437;-71
2022/05/25 05:02:51;;;;;;;4.53;3.70;;;14.10;92.80;;;;;;5133765;28;20209;-71
2022/05/25 05:05:18;;;;;;;8.40;4.13;;;14.10;92.80;;;;;;5133215;28;20431;-71
2022/05/25 05:07:45;;;;;;;8.20;3.87;;;14.00;92.90;;;;;;5134202;28;20461;-72
2022/05/25 05:10:13;;;;;;;6.30;4.57;;;13.90;93.10;;;;;;5135018;28;20470;-71
2022/05/25 05:12:40;;;;;;;4.53;3.90;;;14.00;93.30;;;;;;5134222;28;20447;-72
2022/05/25 05:15:08;;;;;;;8.67;4.80;;;14.00;93.40;;;;;;5135687;28;20432;-72
2022/05/25 05:17:35;;;;;;;11.30;4.63;;;14.10;93.40;;;;;;5135194;28;20474;-71
2022/05/25 05:20:05;;;;;;;7.30;4.47;;;14.10;93.20;;;;;;5134176;28;20447;-71
2022/05/25 05:22:32;;;;;;;8.10;4.80;;;14.10;93.00;;;;;;5132710;28;20435;-71
2022/05/25 05:24:58;;;;;;;8.03;4.00;;;14.10;93.00;;;;;;5127896;28;20454;-70
2022/05/25 05:27:25;;;;;;;7.40;3.47;;;14.10;92.90;;;;;;5127103;28;20446;-69
2022/05/25 05:29:52;;;;;;;6.13;3.93;;;14.10;93.20;;;;;;5127032;28;20870;-69
2022/05/25 05:32:19;;;;;;;9.00;4.40;;;14.10;93.20;;;;;;5130506;28;20427;-71
2022/05/25 05:34:46;;;;;;;13.57;4.57;;;14.20;93.20;;;;;;5132843;28;20446;-71
2022/05/25 05:37:20;;;;;;;5.03;4.40;;;14.20;93.40;;;;;;5130979;28;20479;-71
2022/05/25 05:39:52;;;;;;;8.90;5.37;;;14.20;93.20;;;;;;5131265;28;20459;-71
2022/05/25 05:42:22;;;;;;;8.13;4.20;;;14.20;93.30;;;;;;5131660;28;20435;-71
2022/05/25 05:44:53;;;;;;;7.63;4.77;;;14.30;93.30;;;;;;5131713;28;20439;-71
2022/05/25 05:47:24;;;;;;;6.77;4.23;;;14.30;93.10;;;;;;5130862;28;20459;-71
2022/05/25 05:49:52;;;;;;;7.10;4.30;;;14.40;92.90;;;;;;5131873;28;20478;-71
2022/05/25 05:52:20;;;;;;;9.37;4.50;;;14.40;92.70;;;;;;5132173;28;20446;-71
2022/05/25 05:54:46;;;;;;;5.80;4.17;;;14.50;92.60;;;;;;5131548;28;20442;-71
2022/05/25 05:57:14;;;;;;;7.87;4.37;;;14.50;92.60;;;;;;5131773;28;20486;-70
2022/05/25 05:59:41;;;;;;;7.60;4.43;;;14.50;92.90;;;;;;5131787;28;20470;-70
2022/05/25 06:02:08;;;;;;;9.37;4.33;;;14.60;92.70;;;;;;5148628;28;20442;-70
2022/05/25 06:04:35;;;;;;;7.60;3.90;;;14.50;92.30;;;;;;5148555;28;20455;-70
2022/05/25 06:07:03;;;;;;;6.90;3.93;;;14.60;92.20;;;;;;5149977;28;20434;-71
2022/05/25 06:09:31;;;;;;;7.00;4.00;;;14.50;92.10;;;;;;5150101;28;20463;-71
2022/05/25 06:11:58;;;;;;;6.80;3.20;;;14.50;92.10;;;;;;5150371;28;20499;-71
2022/05/25 06:14:26;;;;;;;5.10;3.47;;;14.60;92.60;;;;;;5151460;28;20438;-71
2022/05/25 06:19:37;;;;;;;7.80;4.00;;;14.70;92.10;;;;;;5152887;28;20456;-71
2022/05/25 06:22:07;;;;;;;6.70;3.27;;;14.80;92.20;;;;;;5151971;28;20816;-71
2022/05/25 06:24:38;;;;;;;5.40;3.40;;;14.80;92.40;;;;;;5152739;28;20459;-71
2022/05/25 06:27:08;;;;;;;6.50;3.73;;;14.90;92.10;;;;;;5152556;28;20426;-71
2022/05/25 06:29:36;;;;;;;5.50;3.30;;;15.00;92.10;;;;;;5152576;28;20469;-71
2022/05/25 06:32:04;;;;;;;5.73;2.70;;;15.10;91.80;;;;;;5152466;28;20441;-71
2022/05/25 06:34:31;;;;;;;4.63;3.27;;;15.10;91.80;;;;;;5152028;28;20442;-71
2022/05/25 06:36:57;;;;;;;5.50;3.67;;;15.20;91.70;;;;;;5153017;28;20556;-71
2022/05/25 06:39:24;;;;;;;3.13;1.83;;;15.40;91.50;;;;;;5134467;28;20472;-71
2022/05/25 06:41:52;;;;;;;4.87;2.10;;;15.50;91.30;;;;;;5153047;28;20449;-71
2022/05/25 06:44:19;;;;;;;4.73;3.03;;;15.60;90.90;;;;;;5153111;27;20441;-71
2022/05/25 06:46:46;;;;;;;5.03;2.57;;;15.70;90.80;;;;;;5156826;27;20477;-71
2022/05/25 06:49:16;;;;;;;2.90;1.83;;;15.80;91.20;;;;;;5157505;27;20438;-71
2022/05/25 06:51:43;;;;;;;2.63;1.70;;;15.90;89.70;;;;;;5157165;27;20422;-71
2022/05/25 06:54:10;;;;;;;4.37;1.50;;;16.00;88.40;;;;;;5157095;27;20438;-72
2022/05/25 06:56:37;;;;;;;2.33;1.77;;;16.10;89.10;;;;;;5157456;27;20473;-72
2022/05/25 06:59:06;;;;;;;2.70;1.73;;;16.30;88.10;;;;;;5155966;27;20441;-70
2022/05/25 07:01:35;;;;;;;2.33;1.30;;;16.30;85.60;;;;;;5137810;27;20502;-70
2022/05/25 07:04:02;;;;;;;4.40;1.47;;;16.40;83.60;;;;;;5137691;27;20442;-70
2022/05/25 07:06:30;;;;;;;2.53;1.40;;;16.40;81.90;;;;;;5135734;27;20422;-70
2022/05/25 07:08:57;;;;;;;3.73;1.40;;;16.40;81.80;;;;;;5116937;28;20438;-70
2022/05/25 07:11:24;;;;;;;6.30;1.50;;;16.50;81.80;;;;;;5116702;28;20996;-70
2022/05/25 07:13:52;;;;;;;2.57;1.47;;;16.50;81.10;;;;;;5117185;28;20454;-70
2022/05/25 07:16:21;;;;;;;6.30;1.33;;;16.50;80.40;;;;;;5116890;28;20818;-70
2022/05/25 07:18:49;;;;;;;3.73;2.10;;;16.60;80.20;;;;;;5117074;28;20446;-70
2022/05/25 07:21:18;;;;;;;1.50;1.03;;;16.70;81.50;;;;;;5116933;28;20466;-70
2022/05/25 07:23:47;;;;;;;1.30;0.93;;;16.80;82.60;;;;;;5116930;28;20945;-70
2022/05/25 07:26:15;;;;;;;4.03;1.10;;;17.00;78.00;;;;;;5117289;28;20482;-70
2022/05/25 07:28:42;;;;;;;4.33;1.40;;;17.10;76.00;;;;;;5116653;28;20432;-69
2022/05/25 07:31:12;;;;;;;4.30;1.10;;;17.20;76.10;;;;;;5116484;28;20471;-70
2022/05/25 07:33:44;;;;;;;3.13;0.80;;;17.30;75.30;;;;;;5116803;28;20451;-69
2022/05/25 07:36:12;;;;;;;1.33;0.50;;;17.50;74.60;;;;;;5116286;28;20431;-70
2022/05/25 07:38:43;;;;;;;4.30;0.80;;;17.60;74.80;;;;;;5116527;28;20508;-70
2022/05/25 07:41:11;;;;;;;4.87;0.90;;;17.70;74.60;;;;;;5116443;28;20478;-70
2022/05/25 07:43:40;;;;;;;1.50;0.70;;;17.90;69.40;;;;;;5116569;28;20438;-70
2022/05/25 07:46:07;;;;;;;2.23;0.60;;;17.90;69.70;;;;;;5115974;28;20954;-70
2022/05/25 07:48:36;;;;;;;3.60;1.00;;;18.00;68.20;;;;;;5116313;28;20450;-70
2022/05/25 07:51:05;;;;;;;1.47;0.47;;;18.00;66.30;;;;;;5116172;28;20477;-70
2022/05/25 07:56:19;;;;;;;1.13;0.60;;;18.10;65.60;;;;;;5115610;28;20488;-70
2022/05/25 07:58:46;;;;;;;1.60;0.60;;;18.10;66.20;;;;;;5115944;28;20479;-70
2022/05/25 08:01:15;;;;;;;2.30;0.60;;;18.20;65.20;;;;;;5115861;28;20480;-70
2022/05/25 08:06:34;;;;;;;1.70;0.70;;;18.40;64.40;;;;;;5040436;28;20435;-70
2022/05/25 08:09:01;;;;;;;1.63;0.50;;;18.50;65.10;;;;;;5116389;28;20812;-70
2022/05/25 08:11:29;;;;;;;4.00;0.60;;;18.60;65.20;;;;;;5116071;28;20463;-70
2022/05/25 08:13:57;;;;;;;1.80;0.60;;;18.70;63.50;;;;;;5115879;28;20500;-71
2022/05/25 08:16:24;;;;;;;0.60;0.40;;;18.90;65.30;;;;;;5115569;28;20423;-71
2022/05/25 08:18:51;;;;;;;3.23;0.80;;;19.10;62.70;;;;;;5115914;28;20483;-71
2022/05/25 08:21:18;;;;;;;1.70;0.80;;;19.20;60.60;;;;;;5115730;28;20470;-71
2022/05/25 08:23:46;;;;;;;0.80;0.70;;;19.50;61.00;;;;;;5115795;28;20458;-71
2022/05/25 08:26:13;;;;;;;3.70;0.60;;;19.70;57.40;;;;;;5115561;28;20473;-71
2022/05/25 08:28:40;;;;;;;1.33;0.50;;;19.70;56.10;;;;;;5115726;28;20446;-71
2022/05/25 08:31:07;;;;;;;1.03;0.60;;;19.70;55.20;;;;;;5115985;28;20482;-71
2022/05/25 08:33:34;;;;;;;1.80;0.50;;;19.70;55.00;;;;;;5115897;28;20446;-71
2022/05/25 08:36:00;;;;;;;1.37;0.87;;;19.60;56.40;;;;;;5115597;28;20463;-70
2022/05/25 08:38:27;;;;;;;1.90;0.60;;;19.50;57.00;;;;;;5115281;28;20564;-70
2022/05/25 08:40:56;;;;;;;2.07;0.60;;;19.50;58.30;;;;;;5115605;28;20478;-71
2022/05/25 08:43:28;;;;;;;1.00;0.60;;;19.50;56.60;;;;;;5115592;28;20447;-71
2022/05/25 08:45:58;;;;;;;2.43;0.60;;;19.60;57.00;;;;;;5115118;28;20466;-71
2022/05/25 08:48:26;;;;;;;2.93;0.67;;;19.70;55.60;;;;;;5115192;28;20446;-71
2022/05/25 08:50:55;;;;;;;2.57;0.50;;;19.80;55.60;;;;;;5115137;28;20490;-71
2022/05/25 08:53:24;;;;;;;1.43;0.70;;;19.80;55.90;;;;;;5097441;28;20451;-71
2022/05/25 08:56:02;;;;;;;1.83;0.70;;;20.00;55.80;;;;;;5115185;28;20495;-71
2022/05/25 08:58:43;;;;;;;2.90;0.50;;;20.20;55.20;;;;;;5115178;28;20475;-71
2022/05/25 09:01:13;;;;;;;0.93;0.60;;;20.40;55.20;;;;;;5114820;27;20486;-71
2022/05/25 09:03:50;;;;;;;1.10;0.70;;;20.50;54.50;;;;;;5114868;28;20957;-71
2022/05/25 09:06:30;;;;;;;0.77;0.70;;;20.60;56.20;;;;;;5114944;28;20439;-71
2022/05/25 09:09:03;;;;;;;1.27;0.73;;;20.70;54.30;;;;;;5114385;28;20446;-71
2022/05/25 09:11:39;;;;;;;1.57;0.60;;;20.70;53.90;;;;;;5115283;28;20432;-71
2022/05/25 09:14:14;;;;;;;0.90;0.50;;;20.80;51.70;;;;;;5114662;28;20446;-71
2022/05/25 09:16:41;;;;;;;2.97;0.93;;;21.00;51.90;;;;;;5114984;28;20431;-71
2022/05/25 09:19:13;;;;;;;0.80;0.70;;;21.10;51.10;;;;;;5114516;28;20485;-69
2022/05/25 09:21:51;;;;;;;1.30;0.70;;;21.20;51.30;;;;;;5114804;28;20423;-69
2022/05/25 09:24:21;;;;;;;0.70;0.43;;;21.30;51.40;;;;;;5114365;28;20448;-70
2022/05/25 09:26:50;;;;;;;0.90;0.70;;;21.30;49.50;;;;;;5114471;28;20435;-70
2022/05/25 09:29:17;;;;;;;3.50;0.60;;;21.50;51.10;;;;;;5114516;28;20443;-70
2022/05/25 09:31:48;;;;;;;1.40;0.67;;;21.60;51.80;;;;;;5114596;28;20442;-70
2022/05/25 09:34:26;;;;;;;2.20;0.70;;;21.80;50.00;;;;;;5114860;28;20431;-70
2022/05/25 09:36:59;;;;;;;2.37;0.70;;;21.90;51.50;;;;;;5114829;28;20419;-70
2022/05/25 09:39:30;;;;;;;1.13;0.80;;;22.00;49.00;;;;;;5115199;28;20483;-70
2022/05/25 09:42:00;;;;;;;2.20;0.70;;;22.30;48.90;;;;;;5114605;28;20545;-70
2022/05/25 09:44:29;;;;;;;2.43;0.70;;;22.50;48.40;;;;;;5114496;28;20850;-70
2022/05/25 09:47:00;;;;;;;1.60;0.57;;;22.60;48.10;;;;;;5113799;28;20466;-70
2022/05/25 09:49:32;;;;;;;1.60;0.63;;;22.90;47.80;;;;;;5114105;28;20977;-70
2022/05/25 09:52:03;;;;;;;2.30;0.83;;;23.10;49.30;;;;;;5114093;28;20782;-70
2022/05/25 09:54:33;;;;;;;3.50;1.00;;;23.30;46.40;;;;;;5114400;28;20446;-70
2022/05/25 09:57:06;;;;;;;1.20;0.70;;;23.60;45.60;;;;;;5114236;28;20427;-70
2022/05/25 09:59:37;;;;;;;4.00;0.67;;;23.60;45.30;;;;;;5113762;28;20911;-70
2022/05/25 10:02:28;;;;;;;1.30;0.50;;;23.80;44.50;;;;;;5114386;28;20439;-70
2022/05/25 10:04:56;;;;;;;0.80;0.70;;;23.90;46.70;;;;;;5113448;28;20435;-70
2022/05/25 10:07:31;;;;;;;0.90;0.50;;;24.10;43.70;;;;;;5114530;28;20488;-70
2022/05/25 10:10:01;;;;;;;1.07;0.60;;;24.40;42.80;;;;;;5114097;28;20458;-71
2022/05/25 10:12:34;;;;;;;4.03;0.70;;;24.70;41.40;;;;;;5114316;28;20853;-71
2022/05/25 10:15:03;;;;;;;8.87;1.03;;;25.10;40.30;;;;;;5114154;28;20468;-71
2022/05/25 10:17:36;;;;;;;3.80;0.50;;;25.70;38.90;;;;;;5114071;28;20439;-71
2022/05/25 10:20:20;;;;;;;0.60;0.50;;;26.00;38.90;;;;;;5115583;28;20481;-71
2022/05/25 10:22:47;;;;;;;1.60;0.70;;;26.10;35.80;;;;;;5118307;28;20465;-71
2022/05/25 10:25:24;;;;;;;3.83;0.60;;;26.00;36.40;;;;;;5118543;28;20451;-71
2022/05/25 10:27:53;;;;;;;3.00;0.70;;;25.80;35.70;;;;;;5118157;28;20431;-71
2022/05/25 10:38:47;;;;;;;1.60;0.50;;;24.90;37.70;;;;;;5118683;28;20506;-70
2022/05/25 10:44:05;;;;;;;0.93;0.50;;;25.40;37.30;;;;;;5118051;28;20444;-71
2022/05/25 10:46:33;;;;;;;2.77;0.60;;;25.70;34.20;;;;;;5117719;28;20499;-70
2022/05/25 10:49:06;;;;;;;2.87;0.50;;;25.60;34.40;;;;;;5118249;28;20474;-70
2022/05/25 10:51:41;;;;;;;2.73;0.50;;;25.80;34.60;;;;;;5118035;28;20443;-71
2022/05/25 10:57:11;;;;;;;2.33;0.53;;;26.60;33.60;;;;;;5118052;28;20411;-71
2022/05/25 10:59:48;;;;;;;1.73;0.50;;;27.00;32.00;;;;;;5118097;28;20494;-71
2022/05/25 11:02:33;;;;;;;1.60;0.70;;;27.40;32.70;;;;;;5117741;28;20443;-71
2022/05/25 11:05:18;;;;;;;0.80;0.40;;;27.50;31.90;;;;;;5117661;28;20481;-71
2022/05/25 11:07:46;;;;;;;4.43;0.70;;;27.20;31.30;;;;;;5117574;28;20438;-71
2022/05/25 11:10:37;;;;;;;2.20;0.53;;;27.00;32.90;;;;;;5117328;28;20478;-71
2022/05/25 11:13:28;;;;;;;2.10;0.60;;;26.70;32.90;;;;;;5117600;28;20438;-71
2022/05/25 11:16:06;;;;;;;0.90;0.40;;;26.20;33.30;;;;;;5117371;28;20439;-71
2022/05/25 11:18:46;;;;;;;1.43;0.50;;;26.10;33.50;;;;;;5117697;28;20509;-71
2022/05/25 11:21:24;;;;;;;2.27;0.47;;;26.20;34.30;;;;;;5117163;28;20969;-71
2022/05/25 11:24:19;;;;;;;0.70;0.43;;;26.70;35.00;;;;;;5116961;28;20476;-71
2022/05/25 11:27:00;;;;;;;0.87;0.53;;;27.60;32.90;;;;;;5116870;28;20462;-71
2022/05/25 11:29:47;;;;;;;3.77;1.10;;;27.90;30.00;;;;;;5117070;28;20844;-71
2022/05/25 11:32:26;;;;;;;1.00;0.50;;;27.40;31.10;;;;;;5115689;28;20442;-71
2022/05/25 11:35:11;;;;;;;2.90;0.80;;;27.00;32.80;;;;;;5116907;28;20427;-71
2022/05/25 11:37:49;;;;;;;3.40;0.80;;;27.30;33.20;;;;;;5117053;28;20480;-71
2022/05/25 11:40:37;;;;;;;1.93;0.70;;;28.10;31.30;;;;;;5116817;28;20538;-71
2022/05/25 11:43:31;;;;;;;2.00;0.60;;;28.40;31.40;;;;;;5117216;28;20508;-71
2022/05/25 11:46:07;;;;;;;1.67;0.63;;;28.10;30.50;;;;;;5117314;28;20458;-71
2022/05/25 11:48:56;;;;;;;2.77;0.57;;;27.30;33.10;;;;;;5117302;28;20441;-71
2022/05/25 11:51:25;;;;;;;1.50;0.60;;;26.20;33.10;;;;;;5117332;28;20475;-71
2022/05/25 11:54:20;;;;;;;4.43;0.60;;;25.50;34.50;;;;;;5116872;28;20910;-71
2022/05/25 11:56:56;;;;;;;1.00;0.43;;;25.10;36.10;;;;;;5116976;28;20431;-71
2022/05/25 11:59:57;;;;;;;1.63;0.40;;;25.40;38.00;;;;;;5116608;28;20985;-71
2022/05/25 12:02:39;;;;;;;0.80;0.40;;;26.40;34.80;;;;;;5116277;28;20435;-71
2022/05/25 12:05:20;;;;;;;2.90;0.57;;;27.80;33.40;;;;;;5116821;28;20434;-71
2022/05/25 12:08:24;;;;;;;1.03;0.50;;;29.10;32.30;;;;;;5116709;28;20434;-72
2022/05/25 12:11:00;;;;;;;1.23;0.40;;;30.30;28.90;;;;;;5116598;28;20470;-71
2022/05/25 12:13:35;;;;;;;2.30;0.47;;;31.00;27.10;;;;;;5116420;28;20929;-71
2022/05/25 12:16:09;;;;;;;2.40;0.50;;;30.40;26.20;;;;;;5116402;28;20441;-70
2022/05/25 12:18:44;;;;;;;1.40;0.60;;;29.70;28.80;;;;;;5116042;28;20486;-70
2022/05/25 12:21:16;;;;;;;1.27;0.47;;;29.60;28.50;;;;;;5116203;28;20512;-71
2022/05/25 12:23:48;;;;;;;2.13;0.40;;;29.00;28.30;;;;;;5115887;28;20435;-71
2022/05/25 12:26:22;;;;;;;1.40;0.60;;;28.60;29.30;;;;;;5116428;28;20431;-71
2022/05/25 12:28:50;;;;;;;1.63;0.40;;;28.60;30.40;;;;;;5115732;28;20894;-71
2022/05/25 12:31:21;;;;;;;1.80;0.50;;;29.10;30.00;;;;;;5115671;28;20484;-71
2022/05/25 12:33:49;;;;;;;1.17;0.53;;;29.60;27.40;;;;;;5115978;28;20433;-71
2022/05/25 12:36:18;;;;;;;1.13;0.40;;;30.00;26.50;;;;;;5116711;28;20457;-71
2022/05/25 12:38:45;;;;;;;1.80;0.60;;;30.20;26.70;;;;;;5116788;28;20493;-71
2022/05/25 12:41:32;;;;;;;1.47;0.57;;;30.60;26.50;;;;;;5116325;28;20478;-71
2022/05/25 12:48:30;;;;;;;0.87;0.50;;;31.20;26.10;;;;;;5116792;28;20481;-71
2022/05/25 12:49:40;;;;;;;3.73;0.60;;;31.20;24.70;;;;;;5115843;28;20889;-71
2022/05/25 12:52:43;;;;;;;3.40;0.40;;;31.20;24.20;;;;;;5115183;28;20446;-71
2022/05/25 12:55:36;;;;;;;7.30;1.00;;;31.50;25.10;;;;;;5107542;28;20949;-71
2022/05/25 12:58:05;;;;;;;4.77;0.70;;;31.50;24.00;;;;;;5115195;28;20434;-71
2022/05/25 13:00:36;;;;;;;8.37;1.10;;;32.20;25.10;;;;;;5114896;28;20493;-71
2022/05/25 13:03:34;;;;;;;1.60;0.50;;;33.10;24.10;;;;;;5115363;28;20427;-71
2022/05/25 13:06:02;;;;;;;2.77;0.87;;;33.90;22.30;;;;;;5115295;28;20438;-71
2022/05/25 13:09:09;;;;;;;4.00;0.80;;;34.50;21.80;;;;;;5115784;28;20448;-71
2022/05/25 13:11:41;;;;;;;6.70;0.97;;;34.70;22.50;;;;;;5115367;28;20449;-71
2022/05/25 13:14:46;;;;;;;3.17;1.00;;;34.40;21.30;;;;;;5115037;28;20901;-71
2022/05/25 13:17:45;;;;;;;2.30;0.60;;;33.10;21.00;;;;;;5114664;28;20446;-71
2022/05/25 13:20:48;;;;;;;2.33;0.67;;;32.10;23.90;;;;;;5114901;28;20489;-71
2022/05/25 13:23:48;;;;;;;3.43;0.70;;;32.20;23.30;;;;;;5114693;28;20442;-71
2022/05/25 13:26:17;;;;;;;4.83;0.90;;;32.60;22.40;;;;;;5114270;28;20466;-71
2022/05/25 13:28:51;;;;;;;1.67;0.70;;;32.70;22.40;;;;;;5115491;28;20485;-69
2022/05/25 13:31:30;;;;;;;2.80;0.60;;;32.70;21.70;;;;;;5114508;28;20469;-71
2022/05/25 13:34:09;;;;;;;3.70;0.83;;;32.10;23.00;;;;;;5114670;28;20435;-71
2022/05/25 13:36:44;;;;;;;2.50;0.60;;;32.10;24.00;;;;;;5115357;28;20430;-71
2022/05/25 13:39:17;;;;;;;1.07;0.63;;;32.10;23.20;;;;;;5114752;28;20984;-70
2022/05/25 13:41:50;;;;;;;1.60;0.87;;;31.90;22.80;;;;;;5114590;28;20941;-70